sensor_id;sensor_type;location;lat;lon;timestamp;pressure;altitude;pressure_sealevel;temperature;humidity
11621;BME280;5866;49.094;11.900;2023-08-20T00:00:29;96565.00;;;25.53;100.00
11621;BME280;5866;49.094;11.900;2023-08-20T00:02:59;96565.59;;;25.55;100.00
11621;BME280;5866;49.094;11.900;2023-08-20T00:05:31;96572.06;;;25.54;100.00
11621;BME280;5866;49.094;11.900;2023-08-20T00:07:58;96565.59;;;25.55;100.00
11621;BME280;5866;49.094;11.900;2023-08-20T00:10:26;96565.00;;;25.53;100.00
11621;BME280;5866;49.094;11.900;2023-08-20T00:12:55;96562.50;;;25.52;100.00
11621;BME280;5866;49.094;11.900;2023-08-20T00:15:22;96560.88;;;25.51;100.00
11621;BME280;5866;49.094;11.900;2023-08-20T00:17:54;96563.84;;;25.49;100.00
11621;BME280;5866;49.094;11.900;2023-08-20T00:20:22;96555.44;;;25.51;100.00
11621;BME280;5866;49.094;11.900;2023-08-20T00:22:50;96557.66;;;25.54;100.00
11621;BME280;5866;49.094;11.900;2023-08-20T00:25:18;96553.78;;;25.50;100.00
11621;BME280;5866;49.094;11.900;2023-08-20T00:27:46;96547.19;;;25.29;100.00
11621;BME280;5866;49.094;11.900;2023-08-20T00:30:15;96539.13;;;25.17;100.00
11621;BME280;5866;49.094;11.900;2023-08-20T00:32:42;96536.72;;;25.21;100.00
11621;BME280;5866;49.094;11.900;2023-08-20T00:35:10;96537.63;;;25.27;100.00
11621;BME280;5866;49.094;11.900;2023-08-20T00:37:38;96533.03;;;25.27;100.00
11621;BME280;5866;49.094;11.900;2023-08-20T00:40:06;96530.22;;;25.22;100.00
11621;BME280;5866;49.094;11.900;2023-08-20T00:42:36;96535.16;;;25.08;100.00
11621;BME280;5866;49.094;11.900;2023-08-20T00:45:04;96531.94;;;25.11;100.00
11621;BME280;5866;49.094;11.900;2023-08-20T00:47:34;96536.47;;;25.06;100.00
11621;BME280;5866;49.094;11.900;2023-08-20T00:50:03;96539.75;;;25.08;100.00
11621;BME280;5866;49.094;11.900;2023-08-20T00:52:34;96549.72;;;25.19;100.00
11621;BME280;5866;49.094;11.900;2023-08-20T00:55:07;96548.66;;;25.20;100.00
11621;BME280;5866;49.094;11.900;2023-08-20T00:57:36;96554.94;;;24.76;100.00
11621;BME280;5866;49.094;11.900;2023-08-20T01:00:05;96550.56;;;24.75;100.00
11621;BME280;5866;49.094;11.900;2023-08-20T01:02:37;96554.41;;;25.07;100.00
11621;BME280;5866;49.094;11.900;2023-08-20T01:05:07;96547.72;;;25.43;96.54
11621;BME280;5866;49.094;11.900;2023-08-20T01:07:42;96548.19;;;25.56;98.13
11621;BME280;5866;49.094;11.900;2023-08-20T01:10:18;96553.47;;;25.63;99.99
11621;BME280;5866;49.094;11.900;2023-08-20T01:12:47;96552.00;;;25.55;100.00
11621;BME280;5866;49.094;11.900;2023-08-20T01:15:15;96559.38;;;25.43;100.00
11621;BME280;5866;49.094;11.900;2023-08-20T01:17:44;96559.97;;;25.45;100.00
11621;BME280;5866;49.094;11.900;2023-08-20T01:20:13;96564.06;;;25.31;100.00
11621;BME280;5866;49.094;11.900;2023-08-20T01:22:58;96558.94;;;25.35;100.00
11621;BME280;5866;49.094;11.900;2023-08-20T01:25:33;96563.63;;;25.39;100.00
11621;BME280;5866;49.094;11.900;2023-08-20T01:28:18;96568.63;;;25.42;100.00
11621;BME280;5866;49.094;11.900;2023-08-20T01:30:46;96570.06;;;25.33;100.00
11621;BME280;5866;49.094;11.900;2023-08-20T01:33:14;96572.19;;;25.31;100.00
11621;BME280;5866;49.094;11.900;2023-08-20T01:35:42;96568.44;;;25.32;100.00
11621;BME280;5866;49.094;11.900;2023-08-20T01:38:09;96569.59;;;25.36;100.00
11621;BME280;5866;49.094;11.900;2023-08-20T01:40:37;96571.38;;;25.31;100.00
11621;BME280;5866;49.094;11.900;2023-08-20T01:43:04;96572.72;;;25.28;100.00
11621;BME280;5866;49.094;11.900;2023-08-20T01:45:35;96578.63;;;25.25;100.00
11621;BME280;5866;49.094;11.900;2023-08-20T01:48:03;96586.22;;;25.11;100.00
11621;BME280;5866;49.094;11.900;2023-08-20T01:50:31;96588.72;;;25.13;100.00
11621;BME280;5866;49.094;11.900;2023-08-20T01:52:58;96594.34;;;25.23;100.00
11621;BME280;5866;49.094;11.900;2023-08-20T01:55:26;96581.06;;;25.27;100.00
11621;BME280;5866;49.094;11.900;2023-08-20T01:57:57;96588.75;;;25.30;100.00
11621;BME280;5866;49.094;11.900;2023-08-20T02:00:25;96584.53;;;25.22;100.00
11621;BME280;5866;49.094;11.900;2023-08-20T02:02:55;96580.50;;;25.24;100.00
11621;BME280;5866;49.094;11.900;2023-08-20T02:05:23;96584.31;;;25.23;100.00
11621;BME280;5866;49.094;11.900;2023-08-20T02:07:50;96596.59;;;24.98;100.00
11621;BME280;5866;49.094;11.900;2023-08-20T02:10:18;96597.75;;;25.02;100.00
11621;BME280;5866;49.094;11.900;2023-08-20T02:12:47;96595.00;;;25.13;100.00
11621;BME280;5866;49.094;11.900;2023-08-20T02:15:15;96595.31;;;25.17;100.00
11621;BME280;5866;49.094;11.900;2023-08-20T02:17:42;96588.56;;;25.19;100.00
11621;BME280;5866;49.094;11.900;2023-08-20T02:20:12;96593.66;;;25.16;100.00
11621;BME280;5866;49.094;11.900;2023-08-20T02:22:39;96593.06;;;25.14;100.00
11621;BME280;5866;49.094;11.900;2023-08-20T02:25:07;96591.91;;;25.10;100.00
11621;BME280;5866;49.094;11.900;2023-08-20T02:27:35;96597.34;;;25.10;100.00
11621;BME280;5866;49.094;11.900;2023-08-20T02:30:04;96604.25;;;25.01;100.00
11621;BME280;5866;49.094;11.900;2023-08-20T02:32:31;96603.00;;;24.92;100.00
11621;BME280;5866;49.094;11.900;2023-08-20T02:35:00;96597.94;;;24.84;100.00
11621;BME280;5866;49.094;11.900;2023-08-20T02:37:29;96606.91;;;24.73;100.00
11621;BME280;5866;49.094;11.900;2023-08-20T02:39:56;96616.84;;;24.67;100.00
11621;BME280;5866;49.094;11.900;2023-08-20T02:42:24;96621.72;;;24.54;100.00
11621;BME280;5866;49.094;11.900;2023-08-20T02:44:51;96620.63;;;24.66;100.00
11621;BME280;5866;49.094;11.900;2023-08-20T02:47:19;96624.16;;;24.67;100.00
11621;BME280;5866;49.094;11.900;2023-08-20T02:49:47;96625.81;;;24.68;100.00
11621;BME280;5866;49.094;11.900;2023-08-20T02:52:14;96623.81;;;24.75;100.00
11621;BME280;5866;49.094;11.900;2023-08-20T02:54:43;96625.47;;;24.64;100.00
11621;BME280;5866;49.094;11.900;2023-08-20T02:57:11;96630.81;;;24.48;100.00
11621;BME280;5866;49.094;11.900;2023-08-20T02:59:38;96627.72;;;24.56;100.00
11621;BME280;5866;49.094;11.900;2023-08-20T03:02:06;96635.88;;;24.56;100.00
11621;BME280;5866;49.094;11.900;2023-08-20T03:04:33;96633.28;;;24.49;100.00
11621;BME280;5866;49.094;11.900;2023-08-20T03:07:01;96633.06;;;24.51;100.00
11621;BME280;5866;49.094;11.900;2023-08-20T03:09:29;96626.56;;;24.52;100.00
11621;BME280;5866;49.094;11.900;2023-08-20T03:11:58;96636.25;;;24.48;100.00
11621;BME280;5866;49.094;11.900;2023-08-20T03:14:25;96631.41;;;24.50;100.00
11621;BME280;5866;49.094;11.900;2023-08-20T03:16:54;96628.34;;;24.46;100.00
11621;BME280;5866;49.094;11.900;2023-08-20T03:19:22;96630.81;;;24.48;100.00
11621;BME280;5866;49.094;11.900;2023-08-20T03:21:49;96632.69;;;24.47;100.00
11621;BME280;5866;49.094;11.900;2023-08-20T03:24:17;96630.03;;;24.35;100.00
11621;BME280;5866;49.094;11.900;2023-08-20T03:26:44;96621.88;;;24.35;100.00
11621;BME280;5866;49.094;11.900;2023-08-20T03:29:15;96626.47;;;24.35;100.00
11621;BME280;5866;49.094;11.900;2023-08-20T03:31:42;96629.44;;;24.33;100.00
11621;BME280;5866;49.094;11.900;2023-08-20T03:34:10;96622.25;;;24.27;100.00
11621;BME280;5866;49.094;11.900;2023-08-20T03:36:38;96630.28;;;24.22;100.00
11621;BME280;5866;49.094;11.900;2023-08-20T03:39:05;96628.16;;;24.13;100.00
11621;BME280;5866;49.094;11.900;2023-08-20T03:41:33;96618.25;;;24.07;100.00
11621;BME280;5866;49.094;11.900;2023-08-20T03:44:00;96617.88;;;24.03;100.00
11621;BME280;5866;49.094;11.900;2023-08-20T03:46:30;96626.81;;;23.92;100.00
11621;BME280;5866;49.094;11.900;2023-08-20T03:48:57;96617.75;;;23.87;100.00
11621;BME280;5866;49.094;11.900;2023-08-20T03:51:25;96621.88;;;23.78;100.00
11621;BME280;5866;49.094;11.900;2023-08-20T03:53:52;96615.97;;;23.69;100.00
11621;BME280;5866;49.094;11.900;2023-08-20T03:56:20;96611.50;;;23.63;100.00
11621;BME280;5866;49.094;11.900;2023-08-20T03:58:48;96615.13;;;23.57;100.00
11621;BME280;5866;49.094;11.900;2023-08-20T04:01:15;96617.84;;;23.57;100.00
11621;BME280;5866;49.094;11.900;2023-08-20T04:03:45;96617.00;;;23.45;100.00
11621;BME280;5866;49.094;11.900;2023-08-20T04:06:13;96611.94;;;23.37;100.00
11621;BME280;5866;49.094;11.900;2023-08-20T04:08:40;96611.41;;;23.28;100.00
11621;BME280;5866;49.094;11.900;2023-08-20T04:11:09;96617.06;;;23.27;100.00
11621;BME280;5866;49.094;11.900;2023-08-20T04:13:37;96624.09;;;22.86;100.00
11621;BME280;5866;49.094;11.900;2023-08-20T04:16:06;96632.81;;;22.88;100.00
11621;BME280;5866;49.094;11.900;2023-08-20T04:18:33;96631.47;;;22.79;100.00
11621;BME280;5866;49.094;11.900;2023-08-20T04:21:02;96635.69;;;22.75;100.00
11621;BME280;5866;49.094;11.900;2023-08-20T04:23:30;96640.88;;;22.77;100.00
11621;BME280;5866;49.094;11.900;2023-08-20T04:25:58;96641.53;;;22.90;100.00
11621;BME280;5866;49.094;11.900;2023-08-20T04:28:25;96632.75;;;23.07;100.00
11621;BME280;5866;49.094;11.900;2023-08-20T04:30:53;96634.13;;;23.27;100.00
11621;BME280;5866;49.094;11.900;2023-08-20T04:33:21;96625.25;;;23.38;100.00
11621;BME280;5866;49.094;11.900;2023-08-20T04:35:49;96633.41;;;23.50;100.00
11621;BME280;5866;49.094;11.900;2023-08-20T04:38:19;96633.44;;;23.73;100.00
11621;BME280;5866;49.094;11.900;2023-08-20T04:40:46;96639.56;;;24.03;100.00
11621;BME280;5866;49.094;11.900;2023-08-20T04:43:14;96639.66;;;24.55;100.00
11621;BME280;5866;49.094;11.900;2023-08-20T04:45:42;96633.38;;;25.05;100.00
11621;BME280;5866;49.094;11.900;2023-08-20T04:48:10;96625.94;;;25.57;100.00
11621;BME280;5866;49.094;11.900;2023-08-20T04:50:37;96635.50;;;26.10;89.75
11621;BME280;5866;49.094;11.900;2023-08-20T04:53:05;96632.00;;;26.52;84.36
11621;BME280;5866;49.094;11.900;2023-08-20T04:55:34;96639.50;;;26.62;83.28
11621;BME280;5866;49.094;11.900;2023-08-20T04:58:01;96628.59;;;27.05;79.24
11621;BME280;5866;49.094;11.900;2023-08-20T05:00:29;96633.97;;;27.48;75.81
11621;BME280;5866;49.094;11.900;2023-08-20T05:02:57;96634.53;;;28.09;71.85
11621;BME280;5866;49.094;11.900;2023-08-20T05:05:25;96636.28;;;28.77;68.32
11621;BME280;5866;49.094;11.900;2023-08-20T05:07:52;96638.69;;;29.45;64.59
11621;BME280;5866;49.094;11.900;2023-08-20T05:10:20;96630.03;;;30.04;60.27
11621;BME280;5866;49.094;11.900;2023-08-20T05:12:49;96636.25;;;30.54;58.27
11621;BME280;5866;49.094;11.900;2023-08-20T05:15:17;96639.88;;;31.14;56.25
11621;BME280;5866;49.094;11.900;2023-08-20T05:17:44;96638.91;;;31.82;53.89
11621;BME280;5866;49.094;11.900;2023-08-20T05:20:12;96636.25;;;32.40;50.02
11621;BME280;5866;49.094;11.900;2023-08-20T05:22:40;96642.94;;;32.81;48.86
11621;BME280;5866;49.094;11.900;2023-08-20T05:25:08;96645.13;;;33.08;47.45
11621;BME280;5866;49.094;11.900;2023-08-20T05:27:36;96647.84;;;33.31;46.77
11621;BME280;5866;49.094;11.900;2023-08-20T05:30:06;96648.72;;;33.45;46.05
11621;BME280;5866;49.094;11.900;2023-08-20T05:32:35;96650.34;;;33.70;46.02
11621;BME280;5866;49.094;11.900;2023-08-20T05:35:04;96657.69;;;34.12;45.19
11621;BME280;5866;49.094;11.900;2023-08-20T05:37:32;96652.41;;;34.61;43.69
11621;BME280;5866;49.094;11.900;2023-08-20T05:39:59;96654.78;;;34.95;43.76
11621;BME280;5866;49.094;11.900;2023-08-20T05:42:27;96656.22;;;35.20;42.95
11621;BME280;5866;49.094;11.900;2023-08-20T05:44:55;96653.22;;;35.30;42.68
11621;BME280;5866;49.094;11.900;2023-08-20T05:47:23;96659.97;;;35.86;42.07
11621;BME280;5866;49.094;11.900;2023-08-20T05:49:51;96656.53;;;36.70;40.46
11621;BME280;5866;49.094;11.900;2023-08-20T05:52:19;96657.00;;;37.41;38.45
11621;BME280;5866;49.094;11.900;2023-08-20T05:54:46;96659.50;;;38.11;37.59
11621;BME280;5866;49.094;11.900;2023-08-20T05:57:14;96650.91;;;38.85;36.57
11621;BME280;5866;49.094;11.900;2023-08-20T05:59:41;96651.50;;;39.37;34.82
11621;BME280;5866;49.094;11.900;2023-08-20T06:02:09;96656.56;;;39.85;34.27
11621;BME280;5866;49.094;11.900;2023-08-20T06:04:38;96654.19;;;40.36;33.34
11621;BME280;5866;49.094;11.900;2023-08-20T06:07:06;96657.84;;;40.82;32.34
11621;BME280;5866;49.094;11.900;2023-08-20T06:09:33;96656.09;;;40.89;32.30
11621;BME280;5866;49.094;11.900;2023-08-20T06:12:01;96657.69;;;40.78;32.11
11621;BME280;5866;49.094;11.900;2023-08-20T06:14:28;96661.25;;;40.67;32.61
11621;BME280;5866;49.094;11.900;2023-08-20T06:16:56;96663.75;;;40.27;33.01
11621;BME280;5866;49.094;11.900;2023-08-20T06:19:23;96659.91;;;40.19;33.12
11621;BME280;5866;49.094;11.900;2023-08-20T06:21:52;96659.97;;;40.31;33.78
11621;BME280;5866;49.094;11.900;2023-08-20T06:24:20;96663.44;;;40.61;33.17
11621;BME280;5866;49.094;11.900;2023-08-20T06:26:47;96663.75;;;40.48;32.19
11621;BME280;5866;49.094;11.900;2023-08-20T06:29:15;96668.72;;;39.51;33.34
11621;BME280;5866;49.094;11.900;2023-08-20T06:31:43;96668.22;;;38.82;34.61
11621;BME280;5866;49.094;11.900;2023-08-20T06:34:10;96664.91;;;38.97;34.63
11621;BME280;5866;49.094;11.900;2023-08-20T06:36:38;96671.22;;;38.43;35.16
11621;BME280;5866;49.094;11.900;2023-08-20T06:39:07;96677.69;;;37.53;36.64
11621;BME280;5866;49.094;11.900;2023-08-20T06:41:35;96678.66;;;37.48;37.23
11621;BME280;5866;49.094;11.900;2023-08-20T06:44:03;96677.44;;;38.05;36.79
11621;BME280;5866;49.094;11.900;2023-08-20T06:46:31;96681.34;;;38.47;35.66
11621;BME280;5866;49.094;11.900;2023-08-20T06:48:58;96679.53;;;38.60;35.95
11621;BME280;5866;49.094;11.900;2023-08-20T06:51:26;96676.00;;;38.97;35.19
11621;BME280;5866;49.094;11.900;2023-08-20T06:53:54;96689.53;;;38.27;36.01
11621;BME280;5866;49.094;11.900;2023-08-20T06:56:24;96678.22;;;38.57;35.67
11621;BME280;5866;49.094;11.900;2023-08-20T06:58:51;96676.47;;;38.10;36.05
11621;BME280;5866;49.094;11.900;2023-08-20T07:01:19;96679.91;;;38.24;35.95
11621;BME280;5866;49.094;11.900;2023-08-20T07:03:47;96684.59;;;38.06;36.18
11621;BME280;5866;49.094;11.900;2023-08-20T07:06:14;96684.59;;;38.06;36.04
11621;BME280;5866;49.094;11.900;2023-08-20T07:08:42;96696.19;;;38.08;36.05
11621;BME280;5866;49.094;11.900;2023-08-20T07:11:10;96688.91;;;37.39;37.32
11621;BME280;5866;49.094;11.900;2023-08-20T07:13:39;96691.94;;;37.94;36.26
11621;BME280;5866;49.094;11.900;2023-08-20T07:16:06;96691.47;;;38.35;35.71
11621;BME280;5866;49.094;11.900;2023-08-20T07:18:34;96691.31;;;38.31;36.16
11621;BME280;5866;49.094;11.900;2023-08-20T07:21:02;96692.03;;;38.83;35.82
11621;BME280;5866;49.094;11.900;2023-08-20T07:23:29;96685.16;;;39.35;34.78
11621;BME280;5866;49.094;11.900;2023-08-20T07:26:04;96689.53;;;39.36;35.59
11621;BME280;5866;49.094;11.900;2023-08-20T07:28:32;96688.91;;;38.93;35.55
11621;BME280;5866;49.094;11.900;2023-08-20T07:31:15;96682.38;;;39.64;35.38
11621;BME280;5866;49.094;11.900;2023-08-20T07:33:45;96685.00;;;40.11;33.73
11621;BME280;5866;49.094;11.900;2023-08-20T07:36:14;96690.22;;;40.12;33.44
11621;BME280;5866;49.094;11.900;2023-08-20T07:38:41;96690.44;;;39.57;33.87
11621;BME280;5866;49.094;11.900;2023-08-20T07:41:10;96688.31;;;40.46;33.11
11621;BME280;5866;49.094;11.900;2023-08-20T07:43:39;96685.44;;;40.54;32.89
11621;BME280;5866;49.094;11.900;2023-08-20T07:46:08;96688.59;;;40.65;33.32
11621;BME280;5866;49.094;11.900;2023-08-20T07:48:37;96688.84;;;40.60;32.92
11621;BME280;5866;49.094;11.900;2023-08-20T07:51:05;96684.75;;;40.90;32.41
11621;BME280;5866;49.094;11.900;2023-08-20T07:53:33;96692.38;;;40.48;33.27
11621;BME280;5866;49.094;11.900;2023-08-20T07:56:01;96676.09;;;39.76;34.05
11621;BME280;5866;49.094;11.900;2023-08-20T07:58:29;96692.19;;;39.33;34.89
11621;BME280;5866;49.094;11.900;2023-08-20T08:00:57;96683.63;;;39.17;34.54
11621;BME280;5866;49.094;11.900;2023-08-20T08:03:25;96676.94;;;39.97;34.51
11621;BME280;5866;49.094;11.900;2023-08-20T08:05:55;96687.88;;;40.35;32.86
11621;BME280;5866;49.094;11.900;2023-08-20T08:08:23;96688.13;;;40.63;32.33
11621;BME280;5866;49.094;11.900;2023-08-20T08:10:50;96692.16;;;40.86;32.70
11621;BME280;5866;49.094;11.900;2023-08-20T08:13:20;96691.22;;;41.39;30.88
11621;BME280;5866;49.094;11.900;2023-08-20T08:15:48;96689.47;;;41.34;31.73
11621;BME280;5866;49.094;11.900;2023-08-20T08:18:16;96685.31;;;41.64;30.97
11621;BME280;5866;49.094;11.900;2023-08-20T08:20:44;96691.41;;;41.34;30.87
11621;BME280;5866;49.094;11.900;2023-08-20T08:23:12;96699.09;;;41.25;31.85
11621;BME280;5866;49.094;11.900;2023-08-20T08:25:40;96703.94;;;42.00;30.40
11621;BME280;5866;49.094;11.900;2023-08-20T08:28:08;96709.25;;;43.00;29.68
11621;BME280;5866;49.094;11.900;2023-08-20T08:30:36;96703.06;;;43.38;29.42
11621;BME280;5866;49.094;11.900;2023-08-20T08:33:04;96703.50;;;43.56;28.21
11621;BME280;5866;49.094;11.900;2023-08-20T08:35:32;96702.81;;;43.27;28.22
11621;BME280;5866;49.094;11.900;2023-08-20T08:37:59;96694.88;;;42.71;29.64
11621;BME280;5866;49.094;11.900;2023-08-20T08:40:29;96699.16;;;43.11;29.16
11621;BME280;5866;49.094;11.900;2023-08-20T08:42:57;96707.03;;;43.37;29.07
11621;BME280;5866;49.094;11.900;2023-08-20T08:45:26;96699.00;;;42.77;29.88
11621;BME280;5866;49.094;11.900;2023-08-20T08:47:54;96710.59;;;42.35;28.96
11621;BME280;5866;49.094;11.900;2023-08-20T08:50:22;96715.22;;;43.14;28.48
11621;BME280;5866;49.094;11.900;2023-08-20T08:52:51;96707.25;;;42.85;28.88
11621;BME280;5866;49.094;11.900;2023-08-20T08:55:19;96704.47;;;42.57;28.49
11621;BME280;5866;49.094;11.900;2023-08-20T08:57:48;96712.91;;;42.33;29.41
11621;BME280;5866;49.094;11.900;2023-08-20T09:00:16;96711.41;;;42.91;29.75
11621;BME280;5866;49.094;11.900;2023-08-20T09:02:44;96718.97;;;42.63;27.55
11621;BME280;5866;49.094;11.900;2023-08-20T09:05:12;96716.16;;;42.35;28.57
11621;BME280;5866;49.094;11.900;2023-08-20T09:07:42;96706.72;;;41.88;29.33
11621;BME280;5866;49.094;11.900;2023-08-20T09:10:10;96708.03;;;41.78;30.35
11621;BME280;5866;49.094;11.900;2023-08-20T09:12:38;96705.44;;;41.98;28.78
11621;BME280;5866;49.094;11.900;2023-08-20T09:15:11;96710.84;;;41.66;29.39
11621;BME280;5866;49.094;11.900;2023-08-20T09:17:40;96710.84;;;41.66;29.39
11621;BME280;5866;49.094;11.900;2023-08-20T09:20:09;96713.16;;;40.95;29.71
11621;BME280;5866;49.094;11.900;2023-08-20T09:22:37;96710.34;;;40.83;30.67
11621;BME280;5866;49.094;11.900;2023-08-20T09:25:05;96716.81;;;40.22;33.17
11621;BME280;5866;49.094;11.900;2023-08-20T09:27:38;96712.31;;;40.83;31.11
11621;BME280;5866;49.094;11.900;2023-08-20T09:30:07;96707.56;;;40.83;29.65
11621;BME280;5866;49.094;11.900;2023-08-20T09:32:37;96708.75;;;40.94;30.56
11621;BME280;5866;49.094;11.900;2023-08-20T09:35:05;96714.44;;;40.86;31.26
11621;BME280;5866;49.094;11.900;2023-08-20T09:37:33;96718.59;;;41.25;30.71
11621;BME280;5866;49.094;11.900;2023-08-20T09:40:02;96712.78;;;41.30;29.99
11621;BME280;5866;49.094;11.900;2023-08-20T09:42:30;96722.59;;;41.15;30.22
11621;BME280;5866;49.094;11.900;2023-08-20T09:45:01;96721.31;;;41.00;30.51
11621;BME280;5866;49.094;11.900;2023-08-20T09:47:31;96717.59;;;41.08;30.41
11621;BME280;5866;49.094;11.900;2023-08-20T09:50:10;96712.56;;;41.35;29.87
11621;BME280;5866;49.094;11.900;2023-08-20T09:52:40;96712.38;;;41.19;30.18
11621;BME280;5866;49.094;11.900;2023-08-20T09:55:16;96708.13;;;41.34;29.83
11621;BME280;5866;49.094;11.900;2023-08-20T09:57:47;96716.75;;;41.29;30.30
11621;BME280;5866;49.094;11.900;2023-08-20T10:00:15;96719.28;;;41.46;30.36
11621;BME280;5866;49.094;11.900;2023-08-20T10:02:43;96718.03;;;40.98;32.93
11621;BME280;5866;49.094;11.900;2023-08-20T10:05:12;96726.47;;;41.71;29.59
11621;BME280;5866;49.094;11.900;2023-08-20T10:07:42;96726.22;;;42.00;29.12
11621;BME280;5866;49.094;11.900;2023-08-20T10:10:10;96712.97;;;42.09;28.91
11621;BME280;5866;49.094;11.900;2023-08-20T10:12:40;96714.97;;;42.48;29.51
11621;BME280;5866;49.094;11.900;2023-08-20T10:15:09;96711.50;;;41.87;29.81
11621;BME280;5866;49.094;11.900;2023-08-20T10:17:38;96711.38;;;42.08;29.63
11621;BME280;5866;49.094;11.900;2023-08-20T10:20:08;96715.34;;;41.47;31.63
11621;BME280;5866;49.094;11.900;2023-08-20T10:22:38;96715.53;;;42.14;30.13
11621;BME280;5866;49.094;11.900;2023-08-20T10:25:07;96714.34;;;42.27;28.81
11621;BME280;5866;49.094;11.900;2023-08-20T10:27:37;96711.38;;;42.08;29.00
11621;BME280;5866;49.094;11.900;2023-08-20T10:30:08;96711.88;;;41.50;29.35
11621;BME280;5866;49.094;11.900;2023-08-20T10:32:46;96704.41;;;41.90;29.38
11621;BME280;5866;49.094;11.900;2023-08-20T10:35:19;96709.31;;;41.69;29.49
11621;BME280;5866;49.094;11.900;2023-08-20T10:38:08;96719.59;;;42.05;29.78
11621;BME280;5866;49.094;11.900;2023-08-20T10:40:52;96712.66;;;41.38;29.55
11621;BME280;5866;49.094;11.900;2023-08-20T10:43:30;96710.88;;;42.18;29.10
11621;BME280;5866;49.094;11.900;2023-08-20T10:46:13;96718.09;;;42.75;29.49
11621;BME280;5866;49.094;11.900;2023-08-20T10:48:41;96715.84;;;43.39;28.35
11621;BME280;5866;49.094;11.900;2023-08-20T10:51:11;96707.81;;;43.06;27.93
11621;BME280;5866;49.094;11.900;2023-08-20T10:53:42;96709.22;;;42.85;28.22
11621;BME280;5866;49.094;11.900;2023-08-20T10:56:14;96701.28;;;41.91;29.17
11621;BME280;5866;49.094;11.900;2023-08-20T10:58:42;96704.19;;;41.71;29.67
11621;BME280;5866;49.094;11.900;2023-08-20T11:01:19;96700.72;;;41.50;29.69
11621;BME280;5866;49.094;11.900;2023-08-20T11:03:48;96702.34;;;41.27;30.01
11621;BME280;5866;49.094;11.900;2023-08-20T11:06:17;96710.59;;;41.47;30.00
11621;BME280;5866;49.094;11.900;2023-08-20T11:08:46;96699.53;;;41.87;29.24
11621;BME280;5866;49.094;11.900;2023-08-20T11:11:14;96699.78;;;40.44;30.43
11621;BME280;5866;49.094;11.900;2023-08-20T11:13:41;96698.13;;;40.64;31.62
11621;BME280;5866;49.094;11.900;2023-08-20T11:16:09;96704.00;;;40.62;31.70
11621;BME280;5866;49.094;11.900;2023-08-20T11:18:37;96699.22;;;41.28;30.35
11621;BME280;5866;49.094;11.900;2023-08-20T11:21:05;96694.84;;;42.03;29.89
11621;BME280;5866;49.094;11.900;2023-08-20T11:23:32;96697.28;;;42.17;26.99
11621;BME280;5866;49.094;11.900;2023-08-20T11:26:02;96692.81;;;41.52;29.47
11621;BME280;5866;49.094;11.900;2023-08-20T11:28:29;96690.94;;;41.44;29.06
11621;BME280;5866;49.094;11.900;2023-08-20T11:30:57;96704.25;;;40.36;30.25
11621;BME280;5866;49.094;11.900;2023-08-20T11:33:25;96687.97;;;41.25;29.63
11621;BME280;5866;49.094;11.900;2023-08-20T11:35:53;96692.72;;;42.24;28.64
11621;BME280;5866;49.094;11.900;2023-08-20T11:38:23;96691.13;;;41.99;27.58
11621;BME280;5866;49.094;11.900;2023-08-20T11:40:51;96691.41;;;42.06;26.51
11621;BME280;5866;49.094;11.900;2023-08-20T11:43:21;96693.69;;;42.72;27.49
11621;BME280;5866;49.094;11.900;2023-08-20T11:45:49;96690.00;;;42.40;28.23
11621;BME280;5866;49.094;11.900;2023-08-20T11:48:17;96691.88;;;43.22;26.29
11621;BME280;5866;49.094;11.900;2023-08-20T11:50:45;96685.56;;;43.10;26.33
11621;BME280;5866;49.094;11.900;2023-08-20T11:53:12;96682.13;;;42.57;25.36
11621;BME280;5866;49.094;11.900;2023-08-20T11:55:40;96688.41;;;41.75;27.00
11621;BME280;5866;49.094;11.900;2023-08-20T11:58:12;96687.31;;;41.07;28.98
11621;BME280;5866;49.094;11.900;2023-08-20T12:00:41;96690.94;;;41.19;27.69
11621;BME280;5866;49.094;11.900;2023-08-20T12:03:09;96680.41;;;41.25;28.50
11621;BME280;5866;49.094;11.900;2023-08-20T12:05:40;96693.91;;;42.11;28.89
11621;BME280;5866;49.094;11.900;2023-08-20T12:08:15;96683.41;;;42.88;29.52
11621;BME280;5866;49.094;11.900;2023-08-20T12:10:43;96680.25;;;43.52;26.09
11621;BME280;5866;49.094;11.900;2023-08-20T12:13:11;96682.41;;;42.40;28.13
11621;BME280;5866;49.094;11.900;2023-08-20T12:15:38;96678.09;;;42.15;26.65
11621;BME280;5866;49.094;11.900;2023-08-20T12:18:07;96676.06;;;41.88;26.85
11621;BME280;5866;49.094;11.900;2023-08-20T12:20:37;96669.34;;;41.16;27.53
11621;BME280;5866;49.094;11.900;2023-08-20T12:23:06;96668.63;;;42.32;26.80
11621;BME280;5866;49.094;11.900;2023-08-20T12:25:35;96661.38;;;42.71;25.52
11621;BME280;5866;49.094;11.900;2023-08-20T12:28:03;96662.41;;;42.50;26.54
11621;BME280;5866;49.094;11.900;2023-08-20T12:30:32;96660.84;;;42.81;25.96
11621;BME280;5866;49.094;11.900;2023-08-20T12:33:04;96663.00;;;42.16;26.57
11621;BME280;5866;49.094;11.900;2023-08-20T12:35:34;96654.28;;;41.42;26.75
11621;BME280;5866;49.094;11.900;2023-08-20T12:38:01;96650.94;;;41.24;27.24
11621;BME280;5866;49.094;11.900;2023-08-20T12:40:29;96657.53;;;41.44;26.96
11621;BME280;5866;49.094;11.900;2023-08-20T12:42:57;96647.88;;;40.93;27.23
11621;BME280;5866;49.094;11.900;2023-08-20T12:45:24;96644.16;;;40.89;26.10
11621;BME280;5866;49.094;11.900;2023-08-20T12:47:52;96645.47;;;41.64;27.24
11621;BME280;5866;49.094;11.900;2023-08-20T12:50:20;96643.81;;;42.70;26.26
11621;BME280;5866;49.094;11.900;2023-08-20T12:52:49;96636.16;;;43.61;25.30
11621;BME280;5866;49.094;11.900;2023-08-20T12:55:17;96646.28;;;43.03;26.26
11621;BME280;5866;49.094;11.900;2023-08-20T12:57:52;96632.53;;;42.94;26.35
11621;BME280;5866;49.094;11.900;2023-08-20T13:00:20;96629.34;;;43.42;25.85
11621;BME280;5866;49.094;11.900;2023-08-20T13:02:49;96637.69;;;43.58;24.38
11621;BME280;5866;49.094;11.900;2023-08-20T13:05:18;96629.75;;;43.60;24.82